Time;durP1;ratioP1;P1;durP2;ratioP2;P2;SDS_P1;SDS_P2;PMS_P1;PMS_P2;Temp;Humidity;BMP_temperature;BMP_pressure;BME280_temperature;BME280_humidity;BME280_pressure;Samples;Min_cycle;Max_cycle;Signal;HPM_P1;HPM_P2
2022/01/10 00:00:10;;;;;;;;;;;0.90;99.90;;;;;;8375002;28;19956;-68
2022/01/10 00:04:12;;;;;;;;;;;0.90;99.90;;;;;;8373114;28;19924;-68
2022/01/10 00:08:14;;;;;;;;;;;0.90;99.90;;;;;;8373362;28;19936;-68
2022/01/10 00:12:16;;;;;;;;;;;0.80;99.90;;;;;;8399266;28;19924;-68
2022/01/10 00:16:18;;;;;;;;;;;0.80;99.90;;;;;;8389383;28;19964;-68
2022/01/10 00:20:20;;;;;;;;;;;0.80;99.90;;;;;;8383792;28;20422;-69
2022/01/10 00:24:22;;;;;;;;;;;0.80;99.90;;;;;;8379382;28;19925;-69
2022/01/10 00:28:23;;;;;;;;;;;0.70;99.90;;;;;;8384244;28;19924;-68
2022/01/10 00:32:25;;;;;;;;;;;0.60;99.90;;;;;;8378964;28;19932;-68
2022/01/10 00:36:27;;;;;;;;;;;0.60;99.90;;;;;;8375534;28;19928;-69
2022/01/10 00:40:28;;;;;;;;;;;0.60;99.90;;;;;;8371129;28;19929;-68
2022/01/10 00:44:37;;;;;;;;;;;0.60;99.90;;;;;;8383760;28;19979;-68
2022/01/10 00:48:39;;;;;;;;;;;0.60;99.90;;;;;;8379567;28;19931;-69
2022/01/10 00:52:41;;;;;;;;;;;0.60;99.90;;;;;;8422213;28;19978;-68
2022/01/10 00:56:42;;;;;;;;;;;0.60;99.90;;;;;;8419343;28;20350;-68
2022/01/10 01:00:44;;;;;;;;;;;0.60;99.90;;;;;;8406572;28;19944;-68
2022/01/10 01:04:45;;;;;;;;;;;0.60;99.90;;;;;;8393475;28;19924;-68
2022/01/10 01:08:47;;;;;;;;;;;0.50;99.90;;;;;;8399124;28;19924;-68
2022/01/10 01:13:20;;;;;;;;;;;0.50;99.90;;;;;;8396473;28;19932;-68
2022/01/10 01:26:03;;;;;;;;;;;0.50;99.90;;;;;;8373061;28;20073;-69
2022/01/10 01:30:06;;;;;;;;;;;0.40;99.90;;;;;;8398931;28;19929;-70
2022/01/10 01:34:07;;;;;;;;;;;0.40;99.90;;;;;;8410703;28;20008;-68
2022/01/10 01:38:09;;;;;;;;;;;0.40;99.90;;;;;;8411591;28;19990;-69
2022/01/10 01:46:32;;;;;;;;;;;0.30;99.90;;;;;;8408431;28;19947;-68
2022/01/10 01:50:34;;;;;;;;;;;0.30;99.90;;;;;;8394124;28;20045;-68
2022/01/10 01:54:36;;;;;;;;;;;0.30;99.90;;;;;;8406870;28;19950;-68
2022/01/10 01:58:38;;;;;;;;;;;0.20;99.90;;;;;;8408907;28;19925;-68
2022/01/10 02:02:40;;;;;;;;;;;0.20;99.90;;;;;;8406014;28;19928;-68
2022/01/10 02:06:42;;;;;;;;;;;0.20;99.90;;;;;;8416464;28;19925;-68
2022/01/10 02:10:44;;;;;;;;;;;0.20;99.90;;;;;;8415101;28;19936;-68
2022/01/10 02:14:47;;;;;;;;;;;0.10;99.90;;;;;;8393307;28;19928;-68
2022/01/10 02:18:49;;;;;;;;;;;0.10;99.90;;;;;;8404633;28;19925;-69
2022/01/10 02:22:50;;;;;;;;;;;0.10;99.90;;;;;;8410486;28;19924;-69
2022/01/10 02:26:52;;;;;;;;;;;0.10;99.90;;;;;;8400903;28;19932;-68
2022/01/10 02:30:57;;;;;;;;;;;0.10;99.90;;;;;;8408933;28;19924;-69
2022/01/10 02:34:59;;;;;;;;;;;0.10;99.90;;;;;;8412529;28;19924;-68
2022/01/10 02:39:03;;;;;;;;;;;0.10;99.90;;;;;;8413484;28;20359;-69
2022/01/10 02:43:07;;;;;;;;;;;0.10;99.90;;;;;;8411524;28;19931;-68
2022/01/10 02:47:09;;;;;;;;;;;0.10;99.90;;;;;;8410234;28;19964;-70
2022/01/10 02:51:11;;;;;;;;;;;0.10;99.90;;;;;;8418097;28;19975;-69
2022/01/10 02:55:13;;;;;;;;;;;0.10;99.90;;;;;;8413065;28;20296;-69
2022/01/10 02:59:15;;;;;;;;;;;0.10;99.90;;;;;;8418000;28;20324;-69
2022/01/10 03:03:16;;;;;;;;;;;0.10;99.90;;;;;;8407218;28;19935;-69
2022/01/10 03:07:21;;;;;;;;;;;0.10;99.90;;;;;;8420183;28;19924;-69
2022/01/10 03:11:23;;;;;;;;;;;0.20;99.90;;;;;;8414802;28;19924;-68
2022/01/10 03:15:25;;;;;;;;;;;0.20;99.90;;;;;;8394158;28;20399;-69
2022/01/10 03:19:26;;;;;;;;;;;0.20;99.90;;;;;;8412003;28;19960;-68
2022/01/10 03:23:28;;;;;;;;;;;0.20;99.90;;;;;;8404876;28;20275;-68
2022/01/10 03:27:30;;;;;;;;;;;0.20;99.90;;;;;;8412316;28;19924;-69
2022/01/10 03:31:31;;;;;;;;;;;0.30;99.90;;;;;;8419532;28;19932;-69
2022/01/10 03:35:33;;;;;;;;;;;0.20;99.90;;;;;;8414017;28;19924;-69
2022/01/10 03:39:35;;;;;;;;;;;0.20;99.90;;;;;;8425875;28;19924;-69
2022/01/10 03:43:36;;;;;;;;;;;0.20;99.90;;;;;;8401688;28;19928;-69
2022/01/10 03:47:38;;;;;;;;;;;0.20;99.90;;;;;;8418141;28;19928;-68
2022/01/10 03:51:40;;;;;;;;;;;0.20;99.90;;;;;;8405065;28;19924;-68
2022/01/10 03:55:41;;;;;;;;;;;0.30;99.90;;;;;;8424490;28;19991;-69
2022/01/10 03:59:43;;;;;;;;;;;0.30;99.90;;;;;;8427023;28;19924;-69
2022/01/10 04:03:44;;;;;;;;;;;0.20;99.90;;;;;;8408069;28;20481;-68
2022/01/10 04:07:46;;;;;;;;;;;0.20;99.90;;;;;;8410099;28;20003;-69
2022/01/10 04:11:48;;;;;;;;;;;0.30;99.90;;;;;;8411174;28;19924;-68
2022/01/10 04:15:53;;;;;;;;;;;0.30;99.90;;;;;;8418455;28;20019;-68
2022/01/10 04:19:55;;;;;;;;;;;0.30;99.90;;;;;;8417643;28;19924;-69
2022/01/10 04:23:56;;;;;;;;;;;0.30;99.90;;;;;;8423898;28;19932;-69
2022/01/10 04:27:58;;;;;;;;;;;0.30;99.90;;;;;;8422572;28;19924;-69
2022/01/10 04:32:00;;;;;;;;;;;0.40;99.90;;;;;;8413083;28;19924;-69
2022/01/10 04:36:02;;;;;;;;;;;0.40;99.90;;;;;;8425879;28;19924;-69
2022/01/10 04:40:05;;;;;;;;;;;0.40;99.90;;;;;;8405865;28;19931;-69
2022/01/10 04:44:07;;;;;;;;;;;0.40;99.90;;;;;;8403235;28;20957;-69
2022/01/10 04:48:09;;;;;;;;;;;0.50;99.90;;;;;;8413559;28;19924;-69
2022/01/10 04:52:10;;;;;;;;;;;0.50;99.90;;;;;;8419136;28;19967;-68
2022/01/10 04:56:13;;;;;;;;;;;0.60;99.90;;;;;;8419407;28;19925;-69
2022/01/10 05:00:15;;;;;;;;;;;0.60;99.90;;;;;;8395496;28;19971;-69
2022/01/10 05:04:16;;;;;;;;;;;0.60;99.90;;;;;;8401021;28;19974;-69
2022/01/10 05:08:18;;;;;;;;;;;0.60;99.90;;;;;;8402673;28;19928;-69
2022/01/10 05:12:23;;;;;;;;;;;0.70;99.90;;;;;;8404039;28;20275;-69
2022/01/10 05:16:25;;;;;;;;;;;0.70;99.90;;;;;;8397853;28;19932;-69
2022/01/10 05:20:26;;;;;;;;;;;0.70;99.90;;;;;;8406752;28;20037;-69
2022/01/10 05:24:28;;;;;;;;;;;0.70;99.90;;;;;;8412333;28;20012;-69
2022/01/10 05:28:29;;;;;;;;;;;0.80;99.90;;;;;;8400213;28;19931;-69
2022/01/10 05:32:31;;;;;;;;;;;0.90;99.90;;;;;;8413294;28;20336;-70
2022/01/10 05:36:33;;;;;;;;;;;0.90;99.90;;;;;;8417432;28;19963;-69
2022/01/10 05:40:34;;;;;;;;;;;0.90;99.90;;;;;;8402179;28;20521;-69
2022/01/10 05:44:36;;;;;;;;;;;1.00;99.90;;;;;;8412503;28;19939;-69
2022/01/10 05:48:40;;;;;;;;;;;1.00;99.90;;;;;;8396130;28;19928;-69
2022/01/10 05:52:41;;;;;;;;;;;1.00;99.90;;;;;;8420289;28;19944;-69
2022/01/10 05:56:43;;;;;;;;;;;1.00;99.90;;;;;;8408476;28;19967;-69
2022/01/10 06:00:44;;;;;;;;;;;1.00;99.90;;;;;;8397726;28;19924;-69
2022/01/10 06:04:46;;;;;;;;;;;1.10;99.90;;;;;;8398027;28;19928;-69
2022/01/10 06:08:48;;;;;;;;;;;1.10;99.90;;;;;;8395199;28;20358;-69
2022/01/10 06:12:49;;;;;;;;;;;1.10;99.90;;;;;;8426567;28;19968;-69
2022/01/10 06:16:51;;;;;;;;;;;1.20;99.90;;;;;;8423115;28;19924;-69
2022/01/10 06:20:54;;;;;;;;;;;1.20;99.90;;;;;;8401537;28;19924;-69
2022/01/10 06:24:56;;;;;;;;;;;1.20;99.90;;;;;;8405406;28;20403;-69
2022/01/10 06:28:57;;;;;;;;;;;1.30;99.90;;;;;;8403630;28;20506;-70
2022/01/10 06:32:59;;;;;;;;;;;1.30;99.90;;;;;;8415533;28;20372;-69
2022/01/10 06:37:05;;;;;;;;;;;1.40;99.90;;;;;;8415633;28;20015;-69
2022/01/10 06:41:06;;;;;;;;;;;1.40;99.90;;;;;;8423600;28;20466;-69
2022/01/10 06:45:09;;;;;;;;;;;1.40;99.90;;;;;;8414756;28;19939;-69
2022/01/10 06:49:11;;;;;;;;;;;1.40;99.90;;;;;;8405364;28;19967;-69
2022/01/10 06:53:13;;;;;;;;;;;1.40;99.90;;;;;;8421627;28;19963;-69
2022/01/10 06:57:15;;;;;;;;;;;1.50;99.90;;;;;;8418184;28;19924;-69
2022/01/10 07:01:19;;;;;;;;;;;1.50;99.90;;;;;;8414793;28;20368;-69
2022/01/10 07:05:42;;;;;;;;;;;1.60;99.90;;;;;;8403866;28;19936;-68
2022/01/10 07:09:44;;;;;;;;;;;1.60;99.90;;;;;;8422336;28;19982;-69
2022/01/10 07:13:46;;;;;;;;;;;1.60;99.90;;;;;;8401481;28;19931;-68
2022/01/10 07:17:50;;;;;;;;;;;1.60;99.90;;;;;;8396645;28;19924;-68
2022/01/10 07:21:51;;;;;;;;;;;1.60;99.90;;;;;;8415361;28;19970;-69
2022/01/10 07:25:53;;;;;;;;;;;1.70;99.90;;;;;;8403248;28;19925;-69
2022/01/10 07:29:54;;;;;;;;;;;1.70;99.90;;;;;;8422270;28;19955;-69
2022/01/10 07:33:57;;;;;;;;;;;1.70;99.90;;;;;;8419507;28;20336;-69
2022/01/10 07:37:58;;;;;;;;;;;1.70;99.90;;;;;;8418675;28;19989;-68
2022/01/10 07:42:00;;;;;;;;;;;1.70;99.90;;;;;;8416207;28;19924;-69
2022/01/10 07:46:02;;;;;;;;;;;1.70;99.90;;;;;;8402412;28;20352;-69
2022/01/10 07:50:04;;;;;;;;;;;1.60;99.90;;;;;;8399745;28;20444;-69
2022/01/10 07:54:06;;;;;;;;;;;1.60;99.90;;;;;;8396600;28;19976;-69
2022/01/10 07:58:08;;;;;;;;;;;1.60;99.90;;;;;;8403158;28;19971;-69
2022/01/10 08:02:10;;;;;;;;;;;1.60;99.90;;;;;;8403230;28;19967;-69
2022/01/10 08:06:12;;;;;;;;;;;1.60;99.90;;;;;;8379542;28;20359;-69
2022/01/10 08:10:14;;;;;;;;;;;1.50;99.90;;;;;;8399511;28;19928;-70
2022/01/10 08:14:16;;;;;;;;;;;1.50;99.90;;;;;;8383916;28;19928;-69
2022/01/10 08:18:17;;;;;;;;;;;1.50;99.90;;;;;;8388200;28;19962;-69
2022/01/10 08:22:19;;;;;;;;;;;1.50;99.90;;;;;;8397308;28;19967;-69
2022/01/10 08:26:21;;;;;;;;;;;1.50;99.90;;;;;;8388126;28;19924;-69
2022/01/10 08:30:23;;;;;;;;;;;1.60;99.90;;;;;;8405471;28;19935;-69
2022/01/10 08:34:24;;;;;;;;;;;1.60;99.90;;;;;;8403139;28;19928;-69
2022/01/10 08:38:26;;;;;;;;;;;1.70;99.90;;;;;;8405877;28;19978;-69
2022/01/10 08:42:28;;;;;;;;;;;1.70;99.90;;;;;;8388300;28;19936;-70
2022/01/10 08:46:29;;;;;;;;;;;1.70;99.90;;;;;;8401566;28;19928;-69
2022/01/10 08:50:33;;;;;;;;;;;1.80;99.90;;;;;;8403007;28;20054;-69
2022/01/10 08:54:35;;;;;;;;;;;1.90;99.90;;;;;;8384585;28;19933;-70
2022/01/10 08:58:36;;;;;;;;;;;1.90;99.90;;;;;;8404673;28;19924;-69
2022/01/10 09:02:38;;;;;;;;;;;1.90;99.90;;;;;;8405576;28;19967;-69
2022/01/10 09:06:40;;;;;;;;;;;2.00;99.90;;;;;;8405245;28;20409;-69
2022/01/10 09:10:41;;;;;;;;;;;2.00;99.90;;;;;;8405246;28;19967;-69
2022/01/10 09:14:43;;;;;;;;;;;2.10;99.90;;;;;;8390751;28;19924;-69
2022/01/10 09:18:45;;;;;;;;;;;2.20;99.90;;;;;;8385555;28;19928;-69
2022/01/10 09:22:46;;;;;;;;;;;2.20;99.90;;;;;;8383595;28;19924;-69
2022/01/10 09:26:48;;;;;;;;;;;2.30;99.90;;;;;;8393801;28;19933;-69
2022/01/10 09:30:50;;;;;;;;;;;2.40;99.90;;;;;;8404589;28;19924;-69
2022/01/10 09:34:51;;;;;;;;;;;2.50;99.90;;;;;;8401882;28;19932;-69
2022/01/10 09:38:54;;;;;;;;;;;2.60;99.90;;;;;;8401636;28;19966;-69
2022/01/10 09:42:57;;;;;;;;;;;2.70;99.90;;;;;;8406476;28;19960;-69
2022/01/10 09:46:58;;;;;;;;;;;2.70;99.90;;;;;;8404925;28;19972;-69
2022/01/10 09:51:00;;;;;;;;;;;2.80;99.90;;;;;;8392899;28;20019;-69
2022/01/10 09:55:02;;;;;;;;;;;2.90;99.90;;;;;;8404715;28;19971;-69
2022/01/10 09:59:04;;;;;;;;;;;3.00;99.90;;;;;;8404592;28;19973;-70
2022/01/10 10:03:06;;;;;;;;;;;3.10;99.90;;;;;;8408283;28;19932;-69
2022/01/10 10:07:07;;;;;;;;;;;3.10;99.90;;;;;;8403683;28;19928;-69
2022/01/10 10:11:09;;;;;;;;;;;3.20;99.90;;;;;;8400223;28;19964;-69
2022/01/10 10:15:15;;;;;;;;;;;3.20;99.90;;;;;;8405470;28;19932;-69
2022/01/10 10:19:18;;;;;;;;;;;3.30;99.90;;;;;;8404038;28;19935;-70
2022/01/10 10:23:21;;;;;;;;;;;3.40;99.90;;;;;;8401160;28;20023;-69
2022/01/10 10:27:24;;;;;;;;;;;3.40;99.90;;;;;;8400074;28;19939;-69
2022/01/10 10:31:47;;;;;;;;;;;3.50;99.90;;;;;;8402840;28;19990;-69
2022/01/10 10:35:56;;;;;;;;;;;3.60;99.90;;;;;;8405692;28;19978;-68
2022/01/10 10:39:58;;;;;;;;;;;3.60;99.90;;;;;;8381386;28;20022;-70
2022/01/10 10:43:59;;;;;;;;;;;3.70;99.90;;;;;;8388861;28;20414;-70
2022/01/10 10:48:05;;;;;;;;;;;3.80;99.90;;;;;;8400883;28;20291;-69
2022/01/10 10:52:09;;;;;;;;;;;3.90;99.90;;;;;;8384303;28;19956;-70
2022/01/10 10:56:10;;;;;;;;;;;4.00;99.90;;;;;;8399271;28;19980;-69
2022/01/10 11:00:14;;;;;;;;;;;4.10;99.90;;;;;;8398857;28;19960;-70
2022/01/10 11:04:16;;;;;;;;;;;4.30;99.90;;;;;;8401031;28;20403;-69
2022/01/10 11:08:18;;;;;;;;;;;4.40;99.90;;;;;;8404748;28;20134;-69
2022/01/10 11:12:23;;;;;;;;;;;4.60;99.90;;;;;;8400911;28;19924;-69
2022/01/10 11:16:26;;;;;;;;;;;4.70;99.90;;;;;;8401383;28;20377;-69
2022/01/10 11:20:29;;;;;;;;;;;4.80;99.90;;;;;;8388649;28;19964;-69
2022/01/10 11:24:50;;;;;;;;;;;4.70;99.90;;;;;;8390361;28;20355;-69
2022/01/10 11:28:54;;;;;;;;;;;4.70;99.90;;;;;;8379050;28;19936;-69
2022/01/10 11:33:03;;;;;;;;;;;4.80;99.90;;;;;;8379665;28;19971;-69
2022/01/10 11:37:22;;;;;;;;;;;5.00;99.90;;;;;;8398741;28;19934;-69
2022/01/10 11:41:31;;;;;;;;;;;5.20;99.90;;;;;;8397194;28;19967;-69
2022/01/10 11:45:40;;;;;;;;;;;5.50;99.90;;;;;;8397410;28;19974;-69
2022/01/10 11:49:41;;;;;;;;;;;6.20;99.90;;;;;;8383281;28;19963;-70
2022/01/10 11:54:06;;;;;;;;;;;7.30;99.90;;;;;;8396833;28;19960;-70
2022/01/10 11:58:18;;;;;;;;;;;8.40;99.90;;;;;;8371109;28;20354;-70
2022/01/10 12:02:20;;;;;;;;;;;9.60;99.90;;;;;;8391258;28;19928;-70
2022/01/10 12:06:25;;;;;;;;;;;10.10;99.90;;;;;;8403709;28;19924;-70
2022/01/10 12:10:27;;;;;;;;;;;10.60;99.90;;;;;;8391490;28;20336;-69
2022/01/10 12:14:29;;;;;;;;;;;10.70;99.90;;;;;;8377304;28;19980;-70
2022/01/10 12:18:30;;;;;;;;;;;11.00;99.90;;;;;;8391798;28;20153;-69
2022/01/10 12:22:32;;;;;;;;;;;11.20;99.90;;;;;;8389784;28;19971;-69
2022/01/10 12:26:34;;;;;;;;;;;11.40;99.90;;;;;;8389468;28;20022;-70
2022/01/10 12:30:38;;;;;;;;;;;11.70;99.90;;;;;;8389821;28;21926;-69
2022/01/10 12:34:41;;;;;;;;;;;12.20;99.90;;;;;;8392335;28;20342;-69
2022/01/10 12:38:43;;;;;;;;;;;12.50;99.90;;;;;;8375652;28;19928;-70
2022/01/10 12:42:48;;;;;;;;;;;12.80;99.90;;;;;;8394472;28;19979;-70
2022/01/10 12:46:50;;;;;;;;;;;12.90;99.90;;;;;;8389367;28;20320;-69
2022/01/10 12:50:52;;;;;;;;;;;12.80;99.90;;;;;;8390434;28;19975;-69
2022/01/10 12:54:53;;;;;;;;;;;12.70;99.90;;;;;;8393456;28;19929;-69
2022/01/10 12:58:55;;;;;;;;;;;12.80;99.90;;;;;;8387504;28;19951;-70
2022/01/10 13:02:59;;;;;;;;;;;13.00;99.90;;;;;;8391928;28;19955;-70
2022/01/10 13:07:01;;;;;;;;;;;13.40;99.90;;;;;;8392527;28;19947;-70
2022/01/10 13:11:30;;;;;;;;;;;13.60;99.90;;;;;;8383905;28;20575;-70
2022/01/10 13:15:33;;;;;;;;;;;13.70;99.90;;;;;;8395437;28;19968;-70
2022/01/10 13:19:36;;;;;;;;;;;13.60;99.90;;;;;;8396213;28;19929;-70
2022/01/10 13:23:37;;;;;;;;;;;13.60;99.90;;;;;;8388816;28;19932;-70
2022/01/10 13:27:41;;;;;;;;;;;13.80;99.90;;;;;;8396336;28;19974;-70
2022/01/10 13:31:43;;;;;;;;;;;13.90;99.90;;;;;;8387622;28;20343;-70
2022/01/10 13:35:53;;;;;;;;;;;13.50;99.90;;;;;;8388276;28;19978;-69
2022/01/10 13:40:01;;;;;;;;;;;13.00;99.90;;;;;;8372734;28;19972;-70
2022/01/10 13:44:02;;;;;;;;;;;12.40;99.90;;;;;;8392421;28;20304;-70
2022/01/10 13:48:04;;;;;;;;;;;11.80;99.90;;;;;;8373426;28;20336;-70
2022/01/10 13:52:07;;;;;;;;;;;11.40;99.90;;;;;;8383319;28;20364;-69
2022/01/10 13:56:12;;;;;;;;;;;11.00;99.90;;;;;;8406793;28;19929;-69
2022/01/10 14:00:14;;;;;;;;;;;10.60;99.90;;;;;;8377377;28;19940;-70
2022/01/10 14:04:30;;;;;;;;;;;10.40;99.90;;;;;;8375833;28;20011;-69
2022/01/10 14:08:33;;;;;;;;;;;10.10;99.90;;;;;;8391223;28;19983;-69
2022/01/10 14:12:35;;;;;;;;;;;10.10;99.90;;;;;;8387194;28;20444;-70
2022/01/10 14:16:43;;;;;;;;;;;10.00;99.90;;;;;;8390391;28;20022;-69
2022/01/10 14:20:45;;;;;;;;;;;9.90;99.90;;;;;;8385551;28;19982;-69
2022/01/10 14:24:47;;;;;;;;;;;9.80;99.90;;;;;;8405911;27;19959;-69
2022/01/10 14:28:50;;;;;;;;;;;9.70;99.90;;;;;;8372351;28;19929;-70
2022/01/10 14:32:52;;;;;;;;;;;9.50;99.90;;;;;;8396776;28;20010;-69
2022/01/10 14:36:54;;;;;;;;;;;9.50;99.90;;;;;;8397704;28;19933;-69
2022/01/10 14:40:56;;;;;;;;;;;9.50;99.90;;;;;;8386343;28;20130;-70
2022/01/10 14:44:57;;;;;;;;;;;9.50;99.90;;;;;;8372747;28;20270;-69
2022/01/10 14:48:59;;;;;;;;;;;9.60;99.90;;;;;;8398953;28;20012;-69
2022/01/10 14:53:01;;;;;;;;;;;9.60;99.90;;;;;;8386873;28;20236;-69
2022/01/10 14:57:02;;;;;;;;;;;9.70;99.90;;;;;;8388682;28;20359;-69
2022/01/10 15:01:04;;;;;;;;;;;10.00;99.90;;;;;;8367326;28;19971;-69
2022/01/10 15:05:07;;;;;;;16.10;7.70;;;10.80;99.90;;;;;;8386894;28;19980;-69
2022/01/10 15:09:08;;;;;;;;;;;11.50;99.90;;;;;;8400737;28;20006;-69
2022/01/10 15:13:13;;;;;;;;;;;12.10;99.90;;;;;;8385884;28;20449;-70
2022/01/10 15:17:14;;;;;;;;;;;12.50;99.90;;;;;;8389817;28;20015;-70
2022/01/10 15:21:16;;;;;;;;;;;12.70;99.90;;;;;;8385717;28;19978;-70
2022/01/10 15:25:18;;;;;;;;;;;12.80;99.90;;;;;;8389451;28;19924;-70
2022/01/10 15:29:19;;;;;;;;;;;12.60;99.90;;;;;;8375181;28;19927;-69
2022/01/10 15:33:21;;;;;;;;;;;12.30;99.90;;;;;;8374964;28;20110;-70
2022/01/10 15:37:23;;;;;;;;;;;11.90;99.90;;;;;;8392992;28;19968;-69
2022/01/10 15:41:25;;;;;;;;;;;11.30;99.90;;;;;;8392495;28;20019;-69
2022/01/10 15:45:26;;;;;;;;;;;10.60;99.90;;;;;;8393643;28;20013;-69
2022/01/10 15:49:29;;;;;;;;;;;10.00;99.90;;;;;;8392574;28;19928;-69
2022/01/10 15:53:32;;;;;;;;;;;9.40;99.90;;;;;;8395065;28;20387;-69
2022/01/10 15:57:34;;;;;;;;;;;8.80;99.90;;;;;;8375893;28;19929;-69
2022/01/10 16:01:36;;;;;;;;;;;8.40;99.90;;;;;;8386642;28;19924;-69
2022/01/10 16:05:41;;;;;;;;;;;8.20;99.90;;;;;;8391698;28;20448;-69
2022/01/10 16:09:43;;;;;;;;;;;8.00;99.90;;;;;;8392132;28;19963;-69
2022/01/10 16:13:51;;;;;;;;;;;7.80;99.90;;;;;;8391950;28;20402;-69
2022/01/10 16:17:53;;;;;;;;;;;7.60;99.90;;;;;;8377545;28;19963;-69
2022/01/10 16:21:54;;;;;;;;;;;7.30;99.90;;;;;;8391282;28;19986;-69
2022/01/10 16:25:56;;;;;;;;;;;7.10;99.90;;;;;;8388764;28;19959;-70
2022/01/10 16:29:58;;;;;;;;;;;7.00;99.90;;;;;;8390164;28;20023;-69
2022/01/10 16:33:59;;;;;;;;;;;6.90;99.90;;;;;;8391354;28;20015;-70
2022/01/10 16:38:01;;;;;;;;;;;6.80;99.90;;;;;;8392590;28;20386;-69
2022/01/10 16:42:04;;;;;;;;;;;6.70;99.90;;;;;;8394583;28;19975;-70
2022/01/10 16:46:06;;;;;;;;;;;6.70;99.90;;;;;;8392498;28;20341;-69
2022/01/10 16:50:08;;;;;;;;;;;6.60;99.90;;;;;;8382897;28;19928;-70
2022/01/10 16:54:10;;;;;;;;;;;6.60;99.90;;;;;;8391825;28;20295;-70
2022/01/10 16:58:17;;;;;;;;;;;6.50;99.90;;;;;;8392810;28;19947;-69
2022/01/10 17:02:18;;;;;;;;;;;6.40;99.90;;;;;;8386553;28;20355;-69
2022/01/10 17:06:20;;;;;;;;;;;6.40;99.90;;;;;;8395323;28;19931;-69
2022/01/10 17:10:22;;;;;;;;;;;6.30;99.90;;;;;;8372054;28;19962;-69
2022/01/10 17:14:24;;;;;;;;;;;6.30;99.90;;;;;;8372873;28;19970;-69
2022/01/10 17:18:25;;;;;;;;;;;6.20;99.90;;;;;;8391720;28;19920;-69
2022/01/10 17:22:27;;;;;;;;;;;6.10;99.90;;;;;;8374900;28;20012;-69
2022/01/10 17:26:31;;;;;;;;;;;6.00;99.90;;;;;;8390705;28;19932;-69
2022/01/10 17:30:33;;;;;;;;;;;5.80;99.90;;;;;;8392097;28;19932;-70
2022/01/10 17:34:34;;;;;;;;;;;5.70;99.90;;;;;;8394022;28;20050;-70
2022/01/10 17:38:36;;;;;;;;;;;5.50;99.90;;;;;;8375821;28;20364;-69
2022/01/10 17:42:41;;;;;;;;;;;5.40;99.90;;;;;;8390707;28;20063;-70
2022/01/10 17:46:44;;;;;;;;;;;5.30;99.90;;;;;;8396366;28;20402;-69
2022/01/10 17:50:51;;;;;;;;;;;5.30;99.90;;;;;;8375242;28;19920;-69
2022/01/10 17:54:52;;;;;;;;;;;5.20;99.90;;;;;;8387449;28;19975;-69
2022/01/10 17:58:54;;;;;;;;;;;5.10;99.90;;;;;;8389078;28;19946;-69
2022/01/10 18:02:55;;;;;;;;;;;5.00;99.90;;;;;;8373109;28;20370;-70
2022/01/10 18:06:57;;;;;;;;;;;5.00;99.90;;;;;;8386040;28;19937;-68
2022/01/10 18:10:59;;;;;;;;;;;4.90;99.90;;;;;;8398813;28;19928;-69
2022/01/10 18:15:01;;;;;;;;;;;4.80;99.90;;;;;;8401101;28;20371;-69
2022/01/10 18:19:03;;;;;;;;;;;4.60;99.90;;;;;;8379502;28;19974;-69
2022/01/10 18:23:04;;;;;;;;;;;4.40;99.90;;;;;;8392204;28;19956;-69
2022/01/10 18:27:06;;;;;;;;;;;4.20;99.90;;;;;;8384109;28;19931;-69
2022/01/10 18:31:08;;;;;;;;;;;4.20;99.90;;;;;;8389863;28;20338;-69
2022/01/10 18:35:10;;;;;;;;;;;4.10;99.90;;;;;;8384307;28;19928;-70
2022/01/10 18:39:12;;;;;;;;;;;4.10;99.90;;;;;;8365594;28;20356;-69
2022/01/10 18:43:14;;;;;;;;;;;4.00;99.90;;;;;;8384687;28;20069;-69
2022/01/10 18:47:15;;;;;;;;;;;3.90;99.90;;;;;;8377115;28;20066;-69
2022/01/10 18:51:17;;;;;;;;;;;3.80;99.90;;;;;;8388011;28;20644;-69
2022/01/10 18:55:19;;;;;;;;;;;3.70;99.90;;;;;;8386048;28;20068;-69
2022/01/10 18:59:21;;;;;;;;;;;3.50;99.90;;;;;;8391103;28;20051;-69
2022/01/10 19:03:23;;;;;;;;;;;3.50;99.90;;;;;;8387870;28;19971;-69
2022/01/10 19:07:24;;;;;;;;;;;3.40;99.90;;;;;;8370667;28;19924;-69
2022/01/10 19:11:27;;;;;;;;;;;3.30;99.90;;;;;;8387367;28;20015;-70
2022/01/10 19:15:28;;;;;;;;;;;3.20;99.90;;;;;;8387574;28;20003;-69
2022/01/10 19:19:30;;;;;;;;;;;3.10;99.90;;;;;;8385424;28;19988;-69
2022/01/10 19:23:32;;;;;;;;;;;3.10;99.90;;;;;;8386469;28;19949;-69
2022/01/10 19:27:34;;;;;;;;;;;3.10;99.90;;;;;;8394250;28;19963;-70
2022/01/10 19:31:36;;;;;;;;;;;3.10;99.90;;;;;;8386839;28;19931;-70
2022/01/10 19:35:38;;;;;;;;;;;3.10;99.90;;;;;;8384193;28;19928;-69
2022/01/10 19:39:39;;;;;;;;;;;3.20;99.90;;;;;;8384156;28;19971;-69
2022/01/10 19:43:41;;;;;;;;;;;3.20;99.90;;;;;;8398522;28;19971;-69
2022/01/10 19:47:45;;;;;;;;;;;3.20;99.90;;;;;;8392496;28;19923;-70
2022/01/10 19:51:47;;;;;;;;;;;3.10;99.90;;;;;;8393526;28;19986;-70
2022/01/10 19:55:49;;;;;;;;;;;3.00;99.90;;;;;;8395817;28;19924;-69
2022/01/10 19:59:52;;;;;;;;;;;3.10;99.90;;;;;;8384703;28;19959;-70
2022/01/10 20:03:54;;;;;;;;;;;3.10;99.90;;;;;;8396370;28;19959;-70
2022/01/10 20:07:56;;;;;;;;;;;3.20;99.90;;;;;;8400494;28;20043;-70
2022/01/10 20:11:57;;;;;;;;;;;3.10;99.90;;;;;;8394316;28;19967;-70
2022/01/10 20:15:59;;;;;;;;;;;3.00;99.90;;;;;;8410718;28;19974;-70
2022/01/10 20:20:00;;;;;;;;;;;3.00;99.90;;;;;;8389178;28;19920;-68
2022/01/10 20:24:03;;;;;;;;;;;2.90;99.90;;;;;;8388105;28;19922;-69
2022/01/10 20:28:05;;;;;;;;;;;2.90;99.90;;;;;;8400816;28;19947;-69
2022/01/10 20:32:09;;;;;;;;;;;2.80;99.90;;;;;;8382555;28;19946;-69
2022/01/10 20:36:10;;;;;;;;;;;2.80;99.90;;;;;;8399838;28;19967;-69
2022/01/10 20:40:12;;;;;;;;;;;2.70;99.90;;;;;;8396849;28;19931;-69
2022/01/10 20:44:13;;;;;;;;;;;2.70;99.90;;;;;;8383779;28;19983;-69
2022/01/10 20:48:18;;;;;;;;;;;2.80;99.90;;;;;;8394696;28;19926;-69
2022/01/10 20:52:20;;;;;;;;;;;2.70;99.90;;;;;;8401273;28;19963;-69
2022/01/10 20:56:23;;;;;;;;;;;2.70;99.90;;;;;;8401313;28;20019;-69
2022/01/10 21:00:24;;;;;;;;;;;2.60;99.90;;;;;;8400740;28;19971;-69
2022/01/10 21:04:26;;;;;;;;;;;2.50;99.90;;;;;;8398462;28;20418;-69
2022/01/10 21:08:28;;;;;;;;;;;2.50;99.90;;;;;;8394163;28;19920;-70
2022/01/10 21:12:30;;;;;;;;;;;2.40;99.90;;;;;;8389772;28;19928;-69
2022/01/10 21:16:31;;;;;;;;;;;2.40;99.90;;;;;;8392011;28;20023;-69
2022/01/10 21:20:33;;;;;;;;;;;2.40;99.90;;;;;;8391754;28;19967;-69
2022/01/10 21:24:35;;;;;;;;;;;2.30;99.90;;;;;;8395931;28;19931;-70
2022/01/10 21:28:37;;;;;;;;;;;2.30;99.90;;;;;;8388588;28;19939;-69
2022/01/10 21:32:50;;;;;;;;;;;2.40;99.90;;;;;;8389626;28;19928;-69
2022/01/10 21:36:51;;;;;;;;;;;2.30;99.90;;;;;;8391508;28;19920;-70
2022/01/10 21:40:53;;;;;;;;;;;2.40;99.90;;;;;;8386440;28;20371;-70
2022/01/10 21:44:55;;;;;;;;;;;2.40;99.90;;;;;;8388303;28;20343;-69
2022/01/10 21:48:56;;;;;;;;;;;2.30;99.90;;;;;;8389277;28;19951;-69
2022/01/10 21:52:58;;;;;;;;;;;2.30;99.90;;;;;;8370494;28;20379;-68
2022/01/10 21:56:59;;;;;;;;;;;2.20;99.90;;;;;;8387872;28;20366;-69
2022/01/10 22:01:09;;;;;;;;;;;2.20;99.90;;;;;;8390670;28;19971;-69
2022/01/10 22:05:18;;;;;;;;;;;2.20;99.90;;;;;;8413301;28;21179;-69
2022/01/10 22:09:21;;;;;;;;;;;2.10;99.90;;;;;;8416723;28;20010;-70
2022/01/10 22:13:22;;;;;;;;;;;2.10;99.90;;;;;;8414617;28;20393;-69
2022/01/10 22:17:25;;;;;;;;;;;2.10;99.90;;;;;;8424709;28;19924;-69
2022/01/10 22:21:29;;;;;;;;;;;2.10;99.90;;;;;;8406066;28;20340;-70
2022/01/10 22:25:30;;;;;;;;;;;2.20;99.90;;;;;;8411350;28;19975;-69
2022/01/10 22:29:34;;;;;;;;;;;2.20;99.90;;;;;;8412232;28;20001;-69
2022/01/10 22:33:35;;;;;;;;;;;2.20;99.90;;;;;;8396008;28;20402;-70
2022/01/10 22:37:38;;;;;;;;;;;2.20;99.90;;;;;;8402987;28;20345;-69
2022/01/10 22:41:40;;;;;;;;;;;2.20;99.90;;;;;;8425625;28;20276;-69
2022/01/10 22:45:41;;;;;;;;;;;2.10;99.90;;;;;;8415423;28;20383;-69
2022/01/10 22:49:43;;;;;;;;;;;2.20;99.90;;;;;;8392151;28;20005;-69
2022/01/10 22:53:44;;;;;;;;;;;2.20;99.90;;;;;;8400532;28;19975;-69
2022/01/10 22:57:46;;;;;;;;;;;2.10;99.90;;;;;;8401771;28;19931;-69
2022/01/10 23:01:49;;;;;;;;;;;2.20;99.90;;;;;;8395977;28;19971;-70
2022/01/10 23:05:51;;;;;;;;;;;2.10;99.90;;;;;;8409388;28;19931;-69
2022/01/10 23:09:52;;;;;;;;;;;2.10;99.90;;;;;;8396210;28;19940;-69
2022/01/10 23:13:54;;;;;;;;;;;2.10;99.90;;;;;;8418182;28;19924;-69
2022/01/10 23:17:56;;;;;;;;;;;2.10;99.90;;;;;;8413591;28;19947;-69
2022/01/10 23:21:57;;;;;;;;;;;2.10;99.90;;;;;;8391507;28;20321;-69
2022/01/10 23:25:59;;;;;;;;;;;2.20;99.90;;;;;;8415259;28;20387;-70
2022/01/10 23:30:01;;;;;;;;;;;2.20;99.90;;;;;;8417668;28;20197;-69
2022/01/10 23:34:04;;;;;;;;;;;2.20;99.90;;;;;;8415321;28;19924;-69
2022/01/10 23:38:05;;;;;;;;;;;2.30;99.90;;;;;;8402094;28;19955;-69
2022/01/10 23:42:07;;;;;;;;;;;2.30;99.90;;;;;;8411152;28;20399;-69
2022/01/10 23:46:11;;;;;;;;;;;2.30;99.90;;;;;;8417146;28;19944;-70
2022/01/10 23:50:14;;;;;;;;;;;2.30;99.90;;;;;;8402140;28;20291;-69
2022/01/10 23:54:15;;;;;;;;;;;2.30;99.90;;;;;;8416743;28;20359;-69
2022/01/10 23:58:17;;;;;;;;;;;2.30;99.90;;;;;;8419903;28;19928;-69
